createdAt,value
2022-11-13T00:01:28.794Z,49.29
2022-11-13T00:03:59.231Z,49.20
2022-11-13T00:06:28.167Z,49.36
2022-11-13T00:08:56.629Z,49.17
2022-11-13T00:11:24.937Z,49.80
2022-11-13T00:13:53.211Z,49.75
2022-11-13T00:16:25.057Z,49.84
2022-11-13T00:18:53.426Z,49.84
2022-11-13T00:21:24.701Z,49.75
2022-11-13T00:23:53.242Z,49.29
2022-11-13T00:26:23.966Z,49.47
2022-11-13T00:29:03.544Z,50.02
2022-11-13T00:31:31.866Z,49.87
2022-11-13T00:34:19.466Z,49.89
2022-11-13T00:36:49.766Z,49.66
2022-11-13T00:39:21.092Z,50.04
2022-11-13T00:41:49.463Z,49.78
2022-11-13T00:44:23.767Z,50.14
2022-11-13T00:46:52.026Z,50.34
2022-11-13T00:49:20.291Z,50.26
2022-11-13T00:51:48.737Z,49.98
2022-11-13T00:54:17.142Z,50.19
2022-11-13T00:56:45.596Z,50.40
2022-11-13T00:59:16.858Z,49.77
2022-11-13T01:01:45.329Z,50.49
2022-11-13T01:04:16.796Z,50.44
2022-11-13T01:06:49.032Z,50.62
2022-11-13T01:09:19.848Z,50.51
2022-11-13T01:11:48.171Z,50.72
2022-11-13T01:14:16.468Z,50.64
2022-11-13T01:16:44.847Z,51.10
2022-11-13T01:19:13.206Z,51.27
2022-11-13T01:21:41.457Z,51.46
2022-11-13T01:24:10.101Z,51.55
2022-11-13T01:26:38.416Z,51.83
2022-11-13T01:29:09.811Z,52.01
2022-11-13T01:31:38.103Z,51.85
2022-11-13T01:34:06.368Z,51.97
2022-11-13T01:36:36.412Z,51.95
2022-11-13T01:39:07.845Z,52.00
2022-11-13T01:41:36.418Z,51.84
2022-11-13T01:44:07.972Z,52.03
2022-11-13T01:46:41.971Z,52.23
2022-11-13T01:49:12.962Z,52.68
2022-11-13T01:51:43.842Z,52.64
2022-11-13T01:54:19.021Z,52.98
2022-11-13T01:56:57.797Z,52.77
2022-11-13T01:59:32.137Z,53.10
2022-11-13T02:02:00.771Z,53.43
2022-11-13T02:04:31.063Z,52.81
2022-11-13T02:07:07.048Z,53.32
2022-11-13T02:09:49.147Z,53.49
2022-11-13T02:12:25.437Z,53.75
2022-11-13T02:15:02.058Z,54.13
2022-11-13T02:17:52.985Z,53.80
2022-11-13T02:20:56.187Z,54.18
2022-11-13T02:23:48.998Z,54.48
2022-11-13T02:26:24.448Z,54.59
2022-11-13T02:28:52.820Z,54.64
2022-11-13T02:31:21.103Z,54.41
2022-11-13T02:33:49.426Z,54.93
2022-11-13T02:36:22.393Z,54.62
2022-11-13T02:38:55.538Z,54.80
2022-11-13T02:41:23.862Z,54.68
2022-11-13T02:43:52.152Z,54.78
2022-11-13T02:46:20.527Z,54.92
2022-11-13T02:48:51.337Z,55.30
2022-11-13T02:51:22.126Z,55.46
2022-11-13T02:53:55.924Z,55.84
2022-11-13T02:56:27.310Z,55.84
2022-11-13T02:58:55.699Z,55.66
2022-11-13T03:01:24.247Z,55.73
2022-11-13T03:03:59.747Z,55.86
2022-11-13T03:06:28.021Z,56.15
2022-11-13T03:08:58.643Z,56.18
2022-11-13T03:11:26.907Z,56.25
2022-11-13T03:13:55.227Z,56.53
2022-11-13T03:16:23.547Z,56.33
2022-11-13T03:18:54.747Z,56.43
2022-11-13T03:21:26.065Z,56.52
2022-11-13T03:24:01.637Z,56.91
2022-11-13T03:26:30.203Z,56.88
2022-11-13T03:28:58.563Z,57.13
2022-11-13T03:31:27.017Z,57.25
2022-11-13T03:33:55.541Z,57.34
2022-11-13T03:36:25.393Z,57.80
2022-11-13T03:38:53.799Z,57.76
2022-11-13T03:41:24.336Z,57.83
2022-11-13T03:43:55.382Z,57.96
2022-11-13T03:46:23.735Z,58.25
2022-11-13T03:48:52.001Z,58.24
2022-11-13T03:51:26.013Z,58.26
2022-11-13T03:53:55.196Z,58.26
2022-11-13T03:56:26.257Z,58.46
2022-11-13T03:58:57.780Z,58.77
2022-11-13T04:01:28.496Z,58.89
2022-11-13T04:03:56.979Z,59.06
2022-11-13T04:06:27.701Z,59.22
2022-11-13T04:08:58.086Z,59.28
2022-11-13T04:11:26.421Z,59.25
2022-11-13T04:13:57.944Z,59.65
2022-11-13T04:16:26.267Z,59.54
2022-11-13T04:18:54.586Z,59.71
2022-11-13T04:21:25.788Z,59.96
2022-11-13T04:23:56.506Z,59.99
2022-11-13T04:26:27.701Z,59.96
2022-11-13T04:28:58.371Z,60.00
2022-11-13T04:31:28.677Z,60.05
2022-11-13T04:33:59.961Z,59.86
2022-11-13T04:36:28.339Z,60.27
2022-11-13T04:38:58.796Z,60.52
2022-11-13T04:41:45.300Z,60.59
2022-11-13T04:44:13.761Z,60.57
2022-11-13T04:46:44.656Z,60.84
2022-11-13T04:49:12.986Z,60.88
2022-11-13T04:51:43.868Z,61.13
2022-11-13T04:54:12.182Z,61.25
2022-11-13T04:56:40.499Z,61.32
2022-11-13T04:59:15.455Z,61.28
2022-11-13T05:01:48.991Z,61.29
2022-11-13T05:04:20.531Z,61.26
2022-11-13T05:06:49.008Z,61.33
2022-11-13T05:09:17.526Z,61.26
2022-11-13T05:11:48.653Z,61.39
2022-11-13T05:14:19.103Z,61.52
2022-11-13T05:16:47.415Z,61.21
2022-11-13T05:19:15.691Z,61.55
2022-11-13T05:21:46.634Z,61.56
2022-11-13T05:24:15.056Z,61.47
2022-11-13T05:26:43.540Z,61.63
2022-11-13T05:29:11.911Z,61.78
2022-11-13T05:31:45.017Z,61.77
2022-11-13T05:34:13.438Z,61.60
2022-11-13T05:36:44.985Z,61.84
2022-11-13T05:39:13.302Z,61.75
2022-11-13T05:41:43.889Z,61.71
2022-11-13T05:44:12.321Z,61.98
2022-11-13T05:46:40.664Z,61.85
2022-11-13T05:49:11.725Z,62.14
2022-11-13T05:51:43.022Z,62.33
2022-11-13T05:54:12.456Z,62.08
2022-11-13T05:56:43.974Z,62.21
2022-11-13T05:59:15.543Z,62.40
2022-11-13T06:01:44.053Z,62.42
2022-11-13T06:04:14.471Z,62.67
2022-11-13T06:06:43.546Z,62.49
2022-11-13T06:09:15.701Z,62.71
2022-11-13T06:11:47.485Z,62.75
2022-11-13T06:14:15.970Z,62.79
2022-11-13T06:16:49.973Z,62.93
2022-11-13T06:19:18.265Z,62.74
2022-11-13T06:21:50.260Z,62.59
2022-11-13T06:24:18.695Z,63.00
2022-11-13T06:26:47.055Z,62.76
2022-11-13T06:29:23.215Z,62.69
2022-11-13T06:31:51.608Z,63.22
2022-11-13T06:34:20.024Z,63.17
2022-11-13T06:36:51.215Z,63.03
2022-11-13T06:39:22.398Z,62.76
2022-11-13T06:41:50.690Z,63.07
2022-11-13T06:44:18.960Z,62.59
2022-11-13T06:46:56.537Z,62.67
2022-11-13T06:49:30.877Z,62.53
2022-11-13T06:52:00.041Z,62.77
2022-11-13T06:54:35.757Z,62.45
2022-11-13T06:57:06.491Z,62.68
2022-11-13T06:59:38.055Z,62.58
2022-11-13T07:02:06.744Z,62.41
2022-11-13T07:04:38.056Z,62.61
2022-11-13T07:07:06.480Z,63.12
2022-11-13T07:09:37.461Z,63.07
2022-11-13T07:12:06.236Z,63.04
2022-11-13T07:14:36.703Z,63.11
2022-11-13T07:17:10.533Z,63.29
2022-11-13T07:19:44.737Z,63.17
2022-11-13T07:22:13.754Z,63.33
2022-11-13T07:24:43.496Z,63.35
2022-11-13T07:27:16.982Z,63.07
2022-11-13T07:29:45.776Z,63.46
2022-11-13T07:32:18.923Z,63.36
2022-11-13T07:34:47.192Z,63.36
2022-11-13T07:37:16.067Z,63.29
2022-11-13T07:39:45.056Z,63.29
2022-11-13T07:42:20.597Z,63.43
2022-11-13T07:44:55.360Z,63.59
2022-11-13T07:47:24.468Z,63.24
2022-11-13T07:50:01.838Z,63.16
2022-11-13T07:52:32.848Z,62.76
2022-11-13T07:55:01.150Z,63.24
2022-11-13T07:57:32.209Z,63.36
2022-11-13T08:00:05.057Z,63.33
2022-11-13T08:02:40.821Z,63.44
2022-11-13T08:05:12.296Z,63.52
2022-11-13T08:07:50.970Z,63.58
2022-11-13T08:10:21.938Z,63.50
2022-11-13T08:12:58.903Z,63.85
2022-11-13T08:15:30.436Z,63.71
2022-11-13T08:18:03.228Z,64.29
2022-11-13T08:20:32.503Z,64.08
2022-11-13T08:23:02.265Z,64.07
2022-11-13T08:25:31.709Z,64.03
2022-11-13T08:28:02.597Z,64.01
2022-11-13T08:30:31.634Z,64.75
2022-11-13T08:33:02.672Z,64.80
2022-11-13T08:35:35.338Z,64.85
2022-11-13T08:38:06.108Z,65.04
2022-11-13T08:40:37.792Z,64.83
2022-11-13T08:43:06.357Z,64.91
2022-11-13T08:45:39.580Z,64.92
2022-11-13T08:48:08.328Z,64.88
2022-11-13T08:50:36.719Z,64.52
2022-11-13T08:53:08.199Z,64.71
2022-11-13T08:55:36.686Z,64.49
2022-11-13T08:58:08.821Z,64.65
2022-11-13T09:00:41.778Z,64.81
2022-11-13T09:03:15.387Z,64.73
2022-11-13T09:05:51.085Z,64.71
2022-11-13T09:08:21.917Z,64.86
2022-11-13T09:10:52.629Z,65.19
2022-11-13T09:13:28.022Z,65.15
2022-11-13T09:15:58.878Z,65.34
2022-11-13T09:18:36.023Z,65.63
2022-11-13T09:21:07.522Z,65.46
2022-11-13T09:23:36.627Z,65.44
2022-11-13T09:26:05.458Z,65.55
2022-11-13T09:28:34.036Z,65.76
2022-11-13T09:31:07.062Z,66.01
2022-11-13T09:33:43.480Z,66.13
2022-11-13T09:36:16.347Z,66.01
2022-11-13T09:38:49.858Z,66.48
2022-11-13T09:41:34.923Z,66.59
2022-11-13T09:44:09.636Z,66.66
2022-11-13T09:47:00.185Z,66.53
2022-11-13T09:49:38.078Z,66.90
2022-11-13T09:52:34.071Z,66.67
2022-11-13T09:55:05.441Z,67.06
2022-11-13T09:57:36.331Z,66.84
2022-11-13T10:00:17.253Z,67.24
2022-11-13T10:03:12.147Z,67.25
2022-11-13T10:06:11.513Z,67.16
2022-11-13T10:09:01.343Z,67.41
2022-11-13T10:11:50.897Z,67.45
2022-11-13T10:14:47.297Z,67.61
2022-11-13T10:17:32.757Z,67.70
2022-11-13T10:20:12.019Z,67.55
2022-11-13T10:22:55.061Z,67.77
2022-11-13T10:25:27.232Z,67.95
2022-11-13T10:28:15.919Z,67.92
2022-11-13T10:30:53.700Z,67.99
2022-11-13T10:33:24.956Z,68.12
2022-11-13T10:36:20.823Z,68.14
2022-11-13T10:39:09.577Z,68.40
2022-11-13T10:41:56.499Z,68.34
2022-11-13T10:44:36.778Z,68.45
2022-11-13T10:47:42.247Z,68.58
2022-11-13T10:51:02.377Z,68.52
2022-11-13T10:53:27.872Z,68.63
2022-11-13T10:56:01.547Z,68.51
2022-11-13T10:58:32.345Z,68.68
2022-11-13T11:01:01.069Z,68.73
2022-11-13T11:03:32.230Z,69.07
2022-11-13T11:06:09.099Z,68.80
2022-11-13T11:08:39.795Z,69.03
2022-11-13T11:11:38.238Z,68.87
2022-11-13T11:14:30.902Z,68.89
2022-11-13T11:17:03.238Z,69.20
2022-11-13T11:19:40.187Z,69.13
2022-11-13T11:22:16.341Z,69.35
2022-11-13T11:24:55.721Z,69.49
2022-11-13T11:27:56.023Z,69.43
2022-11-13T11:30:32.798Z,69.41
2022-11-13T11:33:23.055Z,69.59
2022-11-13T11:36:18.567Z,69.36
2022-11-13T11:39:07.226Z,69.51
2022-11-13T11:41:47.388Z,69.51
2022-11-13T11:44:39.771Z,69.40
2022-11-13T11:47:19.097Z,69.69
2022-11-13T11:49:50.581Z,69.63
2022-11-13T11:52:54.582Z,69.95
2022-11-13T11:55:45.786Z,69.79
2022-11-13T11:58:18.866Z,70.04
2022-11-13T12:01:19.081Z,69.91
2022-11-13T12:04:15.139Z,69.84
2022-11-13T12:07:02.263Z,69.87
2022-11-13T12:09:47.098Z,69.89
2022-11-13T12:12:27.456Z,69.89
2022-11-13T12:15:11.867Z,70.21
2022-11-13T12:17:58.042Z,70.36
2022-11-13T12:20:47.797Z,70.42
2022-11-13T12:23:55.064Z,70.38
2022-11-13T12:26:56.138Z,70.47
2022-11-13T12:29:43.997Z,70.57
2022-11-13T12:32:30.559Z,70.35
2022-11-13T12:35:09.136Z,70.58
2022-11-13T12:38:02.715Z,70.86
2022-11-13T12:40:39.830Z,70.49
2022-11-13T12:43:47.864Z,70.89
2022-11-13T12:46:19.862Z,70.67
2022-11-13T12:48:49.737Z,71.11
2022-11-13T12:51:21.941Z,71.23
2022-11-13T12:54:17.300Z,70.98
2022-11-13T12:56:47.837Z,71.04
2022-11-13T12:59:31.396Z,71.09
2022-11-13T13:02:12.361Z,70.96
2022-11-13T13:05:10.147Z,71.25
2022-11-13T13:08:04.975Z,70.92
2022-11-13T13:10:57.621Z,71.09
2022-11-13T13:13:51.720Z,71.07
2022-11-13T13:16:28.626Z,70.94
2022-11-13T13:19:26.256Z,71.00
2022-11-13T13:22:00.376Z,70.97
2022-11-13T13:24:38.076Z,71.09
2022-11-13T13:27:57.255Z,71.30
2022-11-13T13:30:30.076Z,71.08
2022-11-13T13:33:14.903Z,71.00
2022-11-13T13:36:20.157Z,71.09
2022-11-13T13:39:06.901Z,71.42
2022-11-13T13:42:22.498Z,71.33
2022-11-13T13:45:31.835Z,71.36
2022-11-13T13:48:12.001Z,71.51
2022-11-13T13:50:54.435Z,71.68
2022-11-13T13:53:35.411Z,71.32
2022-11-13T13:56:12.655Z,71.39
2022-11-13T13:58:53.149Z,71.88
2022-11-13T14:01:37.473Z,71.88
2022-11-13T14:04:22.215Z,71.81
2022-11-13T14:06:54.662Z,72.03
2022-11-13T14:09:33.941Z,72.10
2022-11-13T14:12:17.781Z,72.03
2022-11-13T14:14:46.260Z,72.17
2022-11-13T14:17:32.165Z,72.33
2022-11-13T14:20:11.065Z,72.43
2022-11-13T14:22:56.271Z,72.26
2022-11-13T14:25:30.382Z,72.18
2022-11-13T14:28:04.639Z,72.51
2022-11-13T14:30:41.916Z,72.30
2022-11-13T14:33:17.199Z,72.50
2022-11-13T14:35:58.422Z,72.33
2022-11-13T14:38:32.987Z,72.33
2022-11-13T14:41:05.098Z,72.01
2022-11-13T14:43:37.788Z,72.31
2022-11-13T14:46:37.657Z,72.16
2022-11-13T14:49:14.106Z,72.20
2022-11-13T14:51:42.581Z,72.39
2022-11-13T14:55:14.417Z,72.26
2022-11-13T14:57:52.305Z,72.53
2022-11-13T15:00:33.076Z,72.52
2022-11-13T15:03:05.996Z,72.73
2022-11-13T15:05:34.422Z,72.41
2022-11-13T15:08:08.137Z,72.23
2022-11-13T15:10:40.981Z,72.34
2022-11-13T15:13:17.583Z,72.44
2022-11-13T15:15:46.107Z,72.47
2022-11-13T15:18:21.851Z,72.31
2022-11-13T15:20:50.275Z,72.52
2022-11-13T15:23:27.732Z,72.22
2022-11-13T15:25:57.996Z,71.99
2022-11-13T15:28:32.127Z,72.44
2022-11-13T15:31:07.873Z,72.42
2022-11-13T15:33:39.424Z,72.59
2022-11-13T15:36:15.255Z,72.32
2022-11-13T15:38:45.101Z,72.46
2022-11-13T15:41:20.771Z,72.27
2022-11-13T15:44:04.052Z,72.43
2022-11-13T15:46:33.593Z,72.28
2022-11-13T15:49:16.318Z,72.34
2022-11-13T15:51:50.755Z,72.79
2022-11-13T15:54:29.400Z,72.45
2022-11-13T15:57:12.075Z,72.72
2022-11-13T15:59:45.247Z,72.62
2022-11-13T16:02:13.603Z,72.93
2022-11-13T16:04:56.378Z,72.51
2022-11-13T16:07:31.901Z,72.74
2022-11-13T16:10:06.257Z,72.81
2022-11-13T16:12:37.605Z,72.68
2022-11-13T16:15:12.935Z,73.21
2022-11-13T16:17:46.768Z,72.84
2022-11-13T16:20:17.649Z,72.85
2022-11-13T16:22:50.374Z,72.51
2022-11-13T16:25:23.415Z,72.42
2022-11-13T16:27:58.127Z,72.31
2022-11-13T16:30:26.447Z,72.02
2022-11-13T16:33:02.443Z,71.84
2022-11-13T16:35:32.656Z,71.74
2022-11-13T16:38:00.996Z,71.39
2022-11-13T16:40:31.036Z,71.15
2022-11-13T16:43:01.926Z,71.06
2022-11-13T16:45:32.977Z,70.70
2022-11-13T16:48:07.620Z,70.55
2022-11-13T16:50:37.740Z,70.17
2022-11-13T16:53:11.973Z,69.94
2022-11-13T16:55:44.807Z,69.79
2022-11-13T16:58:17.434Z,69.70
2022-11-13T17:00:48.655Z,69.43
2022-11-13T17:03:19.755Z,69.35
2022-11-13T17:05:55.006Z,69.13
2022-11-13T17:08:23.325Z,68.89
2022-11-13T17:10:58.748Z,68.34
2022-11-13T17:13:30.252Z,68.46
2022-11-13T17:16:07.406Z,68.34
2022-11-13T17:18:39.242Z,68.14
2022-11-13T17:21:07.563Z,67.90
2022-11-13T17:23:36.008Z,67.72
2022-11-13T17:26:05.470Z,66.48
2022-11-13T17:28:34.419Z,65.96
2022-11-13T17:31:15.661Z,65.05
2022-11-13T17:33:44.155Z,65.38
2022-11-13T17:36:13.141Z,65.22
2022-11-13T17:38:41.973Z,64.38
2022-11-13T17:41:20.138Z,64.38
2022-11-13T17:43:48.686Z,64.13
2022-11-13T17:46:21.113Z,64.06
2022-11-13T17:48:49.601Z,62.96
2022-11-13T17:51:18.604Z,62.36
2022-11-13T17:53:46.935Z,62.06
2022-11-13T17:56:16.316Z,62.27
2022-11-13T17:58:46.387Z,62.03
2022-11-13T18:01:19.850Z,60.60
2022-11-13T18:03:57.135Z,61.22
2022-11-13T18:06:29.462Z,60.92
2022-11-13T18:08:57.768Z,60.35
2022-11-13T18:11:32.949Z,59.71
2022-11-13T18:14:04.250Z,59.39
2022-11-13T18:16:40.016Z,58.81
2022-11-13T18:19:10.284Z,57.38
2022-11-13T18:21:40.773Z,57.93
2022-11-13T18:24:18.647Z,57.87
2022-11-13T18:26:47.384Z,57.92
2022-11-13T18:29:19.116Z,58.04
2022-11-13T18:31:47.966Z,57.91
2022-11-13T18:34:18.278Z,57.68
2022-11-13T18:36:49.502Z,57.51
2022-11-13T18:39:19.818Z,56.62
2022-11-13T18:41:51.352Z,56.90
2022-11-13T18:44:19.728Z,54.72
2022-11-13T18:46:55.418Z,55.29
2022-11-13T18:49:26.716Z,55.90
2022-11-13T18:51:55.098Z,55.34
2022-11-13T18:54:28.999Z,55.11
2022-11-13T18:56:59.703Z,54.71
2022-11-13T18:59:34.119Z,54.77
2022-11-13T19:02:02.451Z,54.37
2022-11-13T19:04:30.927Z,54.44
2022-11-13T19:06:59.733Z,54.03
2022-11-13T19:09:31.257Z,53.54
2022-11-13T19:12:04.528Z,52.84
2022-11-13T19:14:32.846Z,52.15
2022-11-13T19:17:01.637Z,52.27
2022-11-13T19:19:29.947Z,52.41
2022-11-13T19:22:00.090Z,52.71
2022-11-13T19:24:28.376Z,51.84
2022-11-13T19:26:56.694Z,51.80
2022-11-13T19:29:27.240Z,51.30
2022-11-13T19:31:56.977Z,51.47
2022-11-13T19:34:25.256Z,52.13
2022-11-13T19:36:54.134Z,50.66
2022-11-13T19:39:24.041Z,50.99
2022-11-13T19:41:52.665Z,51.53
2022-11-13T19:44:21.008Z,50.48
2022-11-13T19:46:51.531Z,49.58
2022-11-13T19:49:19.948Z,50.57
2022-11-13T19:51:48.228Z,50.81
2022-11-13T19:54:18.142Z,51.16
2022-11-13T19:56:50.112Z,50.98
2022-11-13T19:59:18.451Z,50.15
2022-11-13T20:01:46.817Z,49.41
2022-11-13T20:04:15.245Z,48.66
2022-11-13T20:06:46.489Z,48.11
2022-11-13T20:09:14.901Z,49.12
2022-11-13T20:11:43.336Z,47.63
2022-11-13T20:14:13.007Z,48.46
2022-11-13T20:16:41.333Z,46.47
2022-11-13T20:19:09.649Z,48.23
2022-11-13T20:21:37.987Z,48.42
2022-11-13T20:24:09.327Z,48.20
2022-11-13T20:26:37.752Z,48.20
2022-11-13T20:29:06.057Z,47.92
2022-11-13T20:31:34.437Z,47.65
2022-11-13T20:34:02.843Z,47.46
2022-11-13T20:36:31.239Z,45.84
2022-11-13T20:39:06.759Z,46.26
2022-11-13T20:41:37.785Z,45.92
2022-11-13T20:44:06.241Z,46.26
2022-11-13T20:46:34.686Z,46.45
2022-11-13T20:49:08.665Z,46.15
2022-11-13T20:51:37.047Z,45.76
2022-11-13T20:54:05.442Z,46.09
2022-11-13T20:56:39.572Z,45.35
2022-11-13T20:59:10.599Z,45.03
2022-11-13T21:01:41.198Z,44.89
2022-11-13T21:04:09.497Z,44.91
2022-11-13T21:06:38.094Z,43.90
2022-11-13T21:09:06.800Z,43.40
2022-11-13T21:11:35.354Z,43.59
2022-11-13T21:14:03.737Z,43.68
2022-11-13T21:16:32.798Z,44.00
2022-11-13T21:19:03.823Z,43.88
2022-11-13T21:21:32.692Z,42.74
2022-11-13T21:24:03.249Z,42.12
2022-11-13T21:26:32.047Z,42.41
2022-11-13T21:29:01.333Z,42.09
2022-11-13T21:31:29.966Z,42.31
2022-11-13T21:33:59.089Z,41.45
2022-11-13T21:36:29.186Z,42.07
2022-11-13T21:38:58.098Z,41.79
2022-11-13T21:41:26.750Z,41.40
2022-11-13T21:44:00.534Z,41.40
2022-11-13T21:46:39.237Z,41.43
2022-11-13T21:49:12.882Z,40.88
2022-11-13T21:51:44.684Z,41.19
2022-11-13T21:54:13.171Z,40.84
2022-11-13T21:56:44.687Z,39.74
2022-11-13T21:59:13.167Z,40.23
2022-11-13T22:01:43.968Z,40.02
2022-11-13T22:04:12.332Z,40.23
2022-11-13T22:06:42.779Z,39.67
2022-11-13T22:09:17.304Z,39.90
2022-11-13T22:11:45.686Z,39.87
2022-11-13T22:14:14.295Z,39.69
2022-11-13T22:16:46.238Z,38.85
2022-11-13T22:19:27.691Z,39.54
2022-11-13T22:21:59.308Z,38.88
2022-11-13T22:24:27.654Z,39.54
2022-11-13T22:26:56.004Z,39.31
2022-11-13T22:29:24.349Z,39.55
2022-11-13T22:31:52.667Z,39.02
2022-11-13T22:34:21.012Z,39.50
2022-11-13T22:36:49.331Z,39.48
2022-11-13T22:39:17.644Z,39.87
2022-11-13T22:41:45.971Z,39.57
2022-11-13T22:44:17.392Z,39.13
2022-11-13T22:46:45.774Z,38.62
2022-11-13T22:49:14.342Z,38.60
2022-11-13T22:51:51.404Z,38.90
2022-11-13T22:54:22.141Z,39.03
2022-11-13T22:56:54.271Z,39.54
2022-11-13T22:59:22.612Z,39.23
2022-11-13T23:01:50.957Z,39.80
2022-11-13T23:04:19.214Z,40.24
2022-11-13T23:06:47.605Z,39.69
2022-11-13T23:09:22.299Z,39.70
2022-11-13T23:11:50.767Z,39.75
2022-11-13T23:14:19.417Z,39.87
2022-11-13T23:16:47.784Z,39.74
2022-11-13T23:19:16.538Z,40.25
2022-11-13T23:21:47.157Z,39.90
2022-11-13T23:24:15.900Z,39.92
2022-11-13T23:26:47.097Z,40.36
2022-11-13T23:29:15.697Z,40.37
2022-11-13T23:31:44.677Z,40.21
2022-11-13T23:34:26.900Z,39.50
2022-11-13T23:37:03.673Z,40.04
2022-11-13T23:39:32.199Z,40.18
2022-11-13T23:42:03.549Z,40.33
2022-11-13T23:44:34.892Z,40.21
2022-11-13T23:47:04.170Z,40.05
2022-11-13T23:49:32.442Z,40.29
2022-11-13T23:52:00.817Z,40.35
2022-11-13T23:54:29.166Z,40.41
2022-11-13T23:57:04.441Z,40.30
2022-11-13T23:59:32.809Z,40.50
